sensor_id;sensor_type;location;lat;lon;timestamp;P1;durP1;ratioP1;P2;durP2;ratioP2
23596;SDS011;40226;50.874;4.394;2023-05-02T00:00:32;118.38;;;45.83;;
23596;SDS011;40226;50.874;4.394;2023-05-02T00:02:59;114.53;;;45.88;;
23596;SDS011;40226;50.874;4.394;2023-05-02T00:05:25;112.78;;;46.78;;
23596;SDS011;40226;50.874;4.394;2023-05-02T00:07:51;107.95;;;46.42;;
23596;SDS011;40226;50.874;4.394;2023-05-02T00:10:17;106.30;;;45.00;;
23596;SDS011;40226;50.874;4.394;2023-05-02T00:12:43;104.43;;;45.53;;
23596;SDS011;40226;50.874;4.394;2023-05-02T00:15:08;104.63;;;44.72;;
23596;SDS011;40226;50.874;4.394;2023-05-02T00:17:34;102.88;;;42.78;;
23596;SDS011;40226;50.874;4.394;2023-05-02T00:20:00;93.70;;;39.75;;
23596;SDS011;40226;50.874;4.394;2023-05-02T00:22:28;90.82;;;38.97;;
23596;SDS011;40226;50.874;4.394;2023-05-02T00:24:57;89.25;;;38.53;;
23596;SDS011;40226;50.874;4.394;2023-05-02T00:27:23;87.50;;;37.88;;
23596;SDS011;40226;50.874;4.394;2023-05-02T00:29:49;92.60;;;38.58;;
23596;SDS011;40226;50.874;4.394;2023-05-02T00:32:16;85.45;;;38.42;;
23596;SDS011;40226;50.874;4.394;2023-05-02T00:34:42;90.70;;;39.22;;
23596;SDS011;40226;50.874;4.394;2023-05-02T00:37:08;89.97;;;39.20;;
23596;SDS011;40226;50.874;4.394;2023-05-02T00:39:34;87.10;;;38.35;;
23596;SDS011;40226;50.874;4.394;2023-05-02T00:41:59;86.15;;;40.00;;
23596;SDS011;40226;50.874;4.394;2023-05-02T00:44:26;91.43;;;38.83;;
23596;SDS011;40226;50.874;4.394;2023-05-02T00:46:52;87.55;;;40.20;;
23596;SDS011;40226;50.874;4.394;2023-05-02T00:49:19;83.05;;;38.63;;
23596;SDS011;40226;50.874;4.394;2023-05-02T00:51:45;79.00;;;38.35;;
23596;SDS011;40226;50.874;4.394;2023-05-02T00:54:11;85.90;;;39.05;;
23596;SDS011;40226;50.874;4.394;2023-05-02T00:56:37;93.57;;;40.17;;
23596;SDS011;40226;50.874;4.394;2023-05-02T00:59:03;88.70;;;42.33;;
23596;SDS011;40226;50.874;4.394;2023-05-02T01:04:22;92.88;;;39.90;;
23596;SDS011;40226;50.874;4.394;2023-05-02T01:15:32;91.32;;;40.17;;
23596;SDS011;40226;50.874;4.394;2023-05-02T01:18:01;96.57;;;43.35;;
23596;SDS011;40226;50.874;4.394;2023-05-02T01:20:29;97.60;;;42.95;;
23596;SDS011;40226;50.874;4.394;2023-05-02T01:23:01;97.78;;;43.33;;
23596;SDS011;40226;50.874;4.394;2023-05-02T01:25:47;101.00;;;44.15;;
23596;SDS011;40226;50.874;4.394;2023-05-02T01:28:28;100.22;;;42.55;;
23596;SDS011;40226;50.874;4.394;2023-05-02T01:31:03;97.50;;;43.35;;
23596;SDS011;40226;50.874;4.394;2023-05-02T01:33:31;102.40;;;43.63;;
23596;SDS011;40226;50.874;4.394;2023-05-02T01:35:59;98.68;;;43.25;;
23596;SDS011;40226;50.874;4.394;2023-05-02T01:38:26;93.93;;;42.90;;
23596;SDS011;40226;50.874;4.394;2023-05-02T01:40:53;96.43;;;42.95;;
23596;SDS011;40226;50.874;4.394;2023-05-02T01:43:20;93.35;;;41.10;;
23596;SDS011;40226;50.874;4.394;2023-05-02T01:45:48;96.30;;;42.30;;
23596;SDS011;40226;50.874;4.394;2023-05-02T01:48:23;90.93;;;40.33;;
23596;SDS011;40226;50.874;4.394;2023-05-02T01:50:50;86.03;;;39.20;;
23596;SDS011;40226;50.874;4.394;2023-05-02T01:53:17;89.15;;;40.53;;
23596;SDS011;40226;50.874;4.394;2023-05-02T01:55:43;89.13;;;40.63;;
23596;SDS011;40226;50.874;4.394;2023-05-02T01:58:11;86.68;;;41.38;;
23596;SDS011;40226;50.874;4.394;2023-05-02T02:00:40;91.03;;;40.28;;
23596;SDS011;40226;50.874;4.394;2023-05-02T02:03:09;88.47;;;40.75;;
23596;SDS011;40226;50.874;4.394;2023-05-02T02:05:36;92.50;;;40.33;;
23596;SDS011;40226;50.874;4.394;2023-05-02T02:08:03;94.05;;;41.13;;
23596;SDS011;40226;50.874;4.394;2023-05-02T02:10:30;93.95;;;42.72;;
23596;SDS011;40226;50.874;4.394;2023-05-02T02:16:02;91.85;;;41.60;;
23596;SDS011;40226;50.874;4.394;2023-05-02T02:18:31;91.40;;;41.63;;
23596;SDS011;40226;50.874;4.394;2023-05-02T02:21:00;94.00;;;40.85;;
23596;SDS011;40226;50.874;4.394;2023-05-02T02:23:29;96.80;;;41.83;;
23596;SDS011;40226;50.874;4.394;2023-05-02T02:25:58;89.70;;;41.30;;
23596;SDS011;40226;50.874;4.394;2023-05-02T02:28:26;95.15;;;41.60;;
23596;SDS011;40226;50.874;4.394;2023-05-02T02:30:52;96.18;;;41.78;;
23596;SDS011;40226;50.874;4.394;2023-05-02T02:33:18;92.93;;;42.65;;
23596;SDS011;40226;50.874;4.394;2023-05-02T02:35:49;90.05;;;42.60;;
23596;SDS011;40226;50.874;4.394;2023-05-02T02:38:37;91.97;;;41.90;;
23596;SDS011;40226;50.874;4.394;2023-05-02T02:41:54;81.22;;;38.60;;
23596;SDS011;40226;50.874;4.394;2023-05-02T02:49:52;97.20;;;39.95;;
23596;SDS011;40226;50.874;4.394;2023-05-02T03:00:59;76.97;;;35.47;;
23596;SDS011;40226;50.874;4.394;2023-05-02T03:03:28;78.28;;;37.15;;
23596;SDS011;40226;50.874;4.394;2023-05-02T03:05:58;80.18;;;36.58;;
23596;SDS011;40226;50.874;4.394;2023-05-02T03:08:24;84.85;;;38.60;;
23596;SDS011;40226;50.874;4.394;2023-05-02T03:10:50;78.53;;;36.70;;
23596;SDS011;40226;50.874;4.394;2023-05-02T03:13:15;85.00;;;37.78;;
23596;SDS011;40226;50.874;4.394;2023-05-02T03:18:17;76.07;;;35.80;;
23596;SDS011;40226;50.874;4.394;2023-05-02T03:20:43;76.68;;;37.35;;
23596;SDS011;40226;50.874;4.394;2023-05-02T03:23:09;80.13;;;37.67;;
23596;SDS011;40226;50.874;4.394;2023-05-02T03:25:35;76.93;;;36.35;;
23596;SDS011;40226;50.874;4.394;2023-05-02T03:28:01;80.38;;;37.92;;
23596;SDS011;40226;50.874;4.394;2023-05-02T03:30:27;86.25;;;38.78;;
23596;SDS011;40226;50.874;4.394;2023-05-02T03:32:52;83.00;;;37.35;;
23596;SDS011;40226;50.874;4.394;2023-05-02T03:35:18;84.07;;;37.85;;
23596;SDS011;40226;50.874;4.394;2023-05-02T03:37:44;82.65;;;38.15;;
23596;SDS011;40226;50.874;4.394;2023-05-02T03:40:09;85.22;;;38.00;;
23596;SDS011;40226;50.874;4.394;2023-05-02T03:42:35;79.93;;;36.47;;
23596;SDS011;40226;50.874;4.394;2023-05-02T03:45:04;87.13;;;36.28;;
23596;SDS011;40226;50.874;4.394;2023-05-02T03:47:35;85.47;;;37.63;;
23596;SDS011;40226;50.874;4.394;2023-05-02T03:50:00;89.45;;;40.05;;
23596;SDS011;40226;50.874;4.394;2023-05-02T03:52:27;85.63;;;37.92;;
23596;SDS011;40226;50.874;4.394;2023-05-02T03:54:53;89.15;;;37.85;;
23596;SDS011;40226;50.874;4.394;2023-05-02T03:57:18;93.13;;;38.25;;
23596;SDS011;40226;50.874;4.394;2023-05-02T03:59:45;90.20;;;39.30;;
23596;SDS011;40226;50.874;4.394;2023-05-02T04:02:11;93.60;;;40.10;;
23596;SDS011;40226;50.874;4.394;2023-05-02T04:04:37;86.75;;;38.50;;
23596;SDS011;40226;50.874;4.394;2023-05-02T04:07:04;88.25;;;39.63;;
23596;SDS011;40226;50.874;4.394;2023-05-02T04:09:31;85.80;;;40.00;;
23596;SDS011;40226;50.874;4.394;2023-05-02T04:12:00;90.15;;;40.55;;
23596;SDS011;40226;50.874;4.394;2023-05-02T04:14:26;93.78;;;41.88;;
23596;SDS011;40226;50.874;4.394;2023-05-02T04:16:51;93.97;;;41.95;;
23596;SDS011;40226;50.874;4.394;2023-05-02T04:19:17;97.38;;;41.47;;
23596;SDS011;40226;50.874;4.394;2023-05-02T04:21:43;95.43;;;41.47;;
23596;SDS011;40226;50.874;4.394;2023-05-02T04:24:09;102.15;;;42.28;;
23596;SDS011;40226;50.874;4.394;2023-05-02T04:26:35;101.57;;;42.53;;
23596;SDS011;40226;50.874;4.394;2023-05-02T04:29:01;98.72;;;41.65;;
23596;SDS011;40226;50.874;4.394;2023-05-02T04:31:27;104.65;;;42.60;;
23596;SDS011;40226;50.874;4.394;2023-05-02T04:33:53;98.82;;;41.80;;
23596;SDS011;40226;50.874;4.394;2023-05-02T04:36:18;98.28;;;41.65;;
23596;SDS011;40226;50.874;4.394;2023-05-02T04:38:44;96.90;;;41.72;;
23596;SDS011;40226;50.874;4.394;2023-05-02T04:41:10;96.50;;;42.58;;
23596;SDS011;40226;50.874;4.394;2023-05-02T04:43:36;96.43;;;41.88;;
23596;SDS011;40226;50.874;4.394;2023-05-02T04:46:02;97.43;;;42.45;;
23596;SDS011;40226;50.874;4.394;2023-05-02T04:48:27;98.00;;;45.67;;
23596;SDS011;40226;50.874;4.394;2023-05-02T04:50:53;96.88;;;42.78;;
23596;SDS011;40226;50.874;4.394;2023-05-02T04:53:22;96.15;;;41.88;;
23596;SDS011;40226;50.874;4.394;2023-05-02T04:55:48;102.40;;;43.05;;
23596;SDS011;40226;50.874;4.394;2023-05-02T04:58:14;96.43;;;43.25;;
23596;SDS011;40226;50.874;4.394;2023-05-02T05:00:40;99.85;;;42.50;;
23596;SDS011;40226;50.874;4.394;2023-05-02T05:03:06;97.68;;;43.03;;
23596;SDS011;40226;50.874;4.394;2023-05-02T05:05:32;95.38;;;43.28;;
23596;SDS011;40226;50.874;4.394;2023-05-02T05:07:57;102.60;;;42.60;;
23596;SDS011;40226;50.874;4.394;2023-05-02T05:10:23;102.65;;;43.08;;
23596;SDS011;40226;50.874;4.394;2023-05-02T05:12:49;91.68;;;43.10;;
23596;SDS011;40226;50.874;4.394;2023-05-02T05:15:15;94.30;;;42.33;;
23596;SDS011;40226;50.874;4.394;2023-05-02T05:17:41;95.78;;;41.95;;
23596;SDS011;40226;50.874;4.394;2023-05-02T05:20:07;89.45;;;40.42;;
23596;SDS011;40226;50.874;4.394;2023-05-02T05:22:39;93.57;;;40.53;;
23596;SDS011;40226;50.874;4.394;2023-05-02T05:25:05;86.00;;;39.38;;
23596;SDS011;40226;50.874;4.394;2023-05-02T05:27:35;79.95;;;36.78;;
23596;SDS011;40226;50.874;4.394;2023-05-02T05:30:01;73.28;;;36.20;;
23596;SDS011;40226;50.874;4.394;2023-05-02T05:32:28;78.18;;;37.50;;
23596;SDS011;40226;50.874;4.394;2023-05-02T05:34:54;73.57;;;35.88;;
23596;SDS011;40226;50.874;4.394;2023-05-02T05:37:19;74.15;;;36.22;;
23596;SDS011;40226;50.874;4.394;2023-05-02T05:39:45;80.05;;;37.58;;
23596;SDS011;40226;50.874;4.394;2023-05-02T05:42:11;79.03;;;38.20;;
23596;SDS011;40226;50.874;4.394;2023-05-02T05:44:37;75.00;;;36.28;;
23596;SDS011;40226;50.874;4.394;2023-05-02T05:47:03;77.32;;;35.10;;
23596;SDS011;40226;50.874;4.394;2023-05-02T05:49:29;70.00;;;34.63;;
23596;SDS011;40226;50.874;4.394;2023-05-02T05:51:55;70.65;;;33.63;;
23596;SDS011;40226;50.874;4.394;2023-05-02T05:54:21;72.40;;;35.08;;
23596;SDS011;40226;50.874;4.394;2023-05-02T05:56:47;69.28;;;35.60;;
23596;SDS011;40226;50.874;4.394;2023-05-02T05:59:13;75.45;;;33.55;;
23596;SDS011;40226;50.874;4.394;2023-05-02T06:01:39;64.85;;;32.72;;
23596;SDS011;40226;50.874;4.394;2023-05-02T06:04:05;66.60;;;33.78;;
23596;SDS011;40226;50.874;4.394;2023-05-02T06:06:31;71.95;;;33.60;;
23596;SDS011;40226;50.874;4.394;2023-05-02T06:08:57;72.22;;;34.88;;
23596;SDS011;40226;50.874;4.394;2023-05-02T06:11:23;70.10;;;33.58;;
23596;SDS011;40226;50.874;4.394;2023-05-02T06:13:50;73.13;;;35.45;;
23596;SDS011;40226;50.874;4.394;2023-05-02T06:16:16;69.28;;;34.17;;
23596;SDS011;40226;50.874;4.394;2023-05-02T06:18:42;79.53;;;35.60;;
23596;SDS011;40226;50.874;4.394;2023-05-02T06:21:08;69.32;;;33.47;;
23596;SDS011;40226;50.874;4.394;2023-05-02T06:23:34;69.00;;;33.72;;
23596;SDS011;40226;50.874;4.394;2023-05-02T06:26:00;74.82;;;34.88;;
23596;SDS011;40226;50.874;4.394;2023-05-02T06:28:27;71.68;;;33.05;;
23596;SDS011;40226;50.874;4.394;2023-05-02T06:30:56;67.50;;;33.83;;
23596;SDS011;40226;50.874;4.394;2023-05-02T06:33:29;75.32;;;33.58;;
23596;SDS011;40226;50.874;4.394;2023-05-02T06:35:55;68.53;;;34.58;;
23596;SDS011;40226;50.874;4.394;2023-05-02T06:38:21;65.10;;;35.35;;
23596;SDS011;40226;50.874;4.394;2023-05-02T06:40:47;64.55;;;33.95;;
23596;SDS011;40226;50.874;4.394;2023-05-02T06:43:13;67.63;;;33.72;;
23596;SDS011;40226;50.874;4.394;2023-05-02T06:45:39;65.55;;;34.95;;
23596;SDS011;40226;50.874;4.394;2023-05-02T06:48:06;67.47;;;34.75;;
23596;SDS011;40226;50.874;4.394;2023-05-02T06:50:32;62.75;;;34.13;;
23596;SDS011;40226;50.874;4.394;2023-05-02T06:52:58;71.18;;;36.47;;
23596;SDS011;40226;50.874;4.394;2023-05-02T06:55:24;69.50;;;36.13;;
23596;SDS011;40226;50.874;4.394;2023-05-02T06:57:50;67.97;;;36.65;;
23596;SDS011;40226;50.874;4.394;2023-05-02T07:00:17;71.38;;;36.42;;
23596;SDS011;40226;50.874;4.394;2023-05-02T07:02:44;69.25;;;36.33;;
23596;SDS011;40226;50.874;4.394;2023-05-02T07:05:10;69.88;;;36.83;;
23596;SDS011;40226;50.874;4.394;2023-05-02T07:07:36;58.65;;;36.13;;
23596;SDS011;40226;50.874;4.394;2023-05-02T07:10:03;66.65;;;38.35;;
23596;SDS011;40226;50.874;4.394;2023-05-02T07:12:28;72.30;;;37.10;;
23596;SDS011;40226;50.874;4.394;2023-05-02T07:14:54;57.33;;;34.55;;
23596;SDS011;40226;50.874;4.394;2023-05-02T07:17:20;65.95;;;36.08;;
23596;SDS011;40226;50.874;4.394;2023-05-02T07:19:46;63.00;;;36.00;;
23596;SDS011;40226;50.874;4.394;2023-05-02T07:22:12;53.17;;;31.10;;
23596;SDS011;40226;50.874;4.394;2023-05-02T07:24:40;53.65;;;28.05;;
23596;SDS011;40226;50.874;4.394;2023-05-02T07:27:10;61.90;;;33.30;;
23596;SDS011;40226;50.874;4.394;2023-05-02T07:29:37;56.05;;;28.73;;
23596;SDS011;40226;50.874;4.394;2023-05-02T07:32:03;48.95;;;26.83;;
23596;SDS011;40226;50.874;4.394;2023-05-02T07:34:29;47.25;;;26.10;;
23596;SDS011;40226;50.874;4.394;2023-05-02T07:36:56;45.47;;;24.73;;
23596;SDS011;40226;50.874;4.394;2023-05-02T07:39:23;47.28;;;26.02;;
23596;SDS011;40226;50.874;4.394;2023-05-02T07:41:52;55.28;;;28.30;;
23596;SDS011;40226;50.874;4.394;2023-05-02T07:44:18;48.78;;;27.08;;
23596;SDS011;40226;50.874;4.394;2023-05-02T07:46:45;51.15;;;29.45;;
23596;SDS011;40226;50.874;4.394;2023-05-02T07:49:11;47.50;;;27.00;;
23596;SDS011;40226;50.874;4.394;2023-05-02T07:51:37;44.28;;;26.00;;
23596;SDS011;40226;50.874;4.394;2023-05-02T07:56:41;29.52;;;19.13;;
23596;SDS011;40226;50.874;4.394;2023-05-02T07:59:07;44.10;;;21.08;;
23596;SDS011;40226;50.874;4.394;2023-05-02T08:01:33;31.65;;;18.33;;
23596;SDS011;40226;50.874;4.394;2023-05-02T08:03:59;28.17;;;17.60;;
23596;SDS011;40226;50.874;4.394;2023-05-02T08:06:25;30.23;;;15.25;;
23596;SDS011;40226;50.874;4.394;2023-05-02T08:08:53;25.23;;;15.77;;
23596;SDS011;40226;50.874;4.394;2023-05-02T08:11:19;26.35;;;15.32;;
23596;SDS011;40226;50.874;4.394;2023-05-02T08:13:49;34.40;;;14.82;;
23596;SDS011;40226;50.874;4.394;2023-05-02T08:16:15;23.40;;;12.57;;
23596;SDS011;40226;50.874;4.394;2023-05-02T08:18:41;28.42;;;12.95;;
23596;SDS011;40226;50.874;4.394;2023-05-02T08:21:07;21.75;;;12.45;;
23596;SDS011;40226;50.874;4.394;2023-05-02T08:23:32;18.98;;;11.23;;
23596;SDS011;40226;50.874;4.394;2023-05-02T08:25:58;19.05;;;10.13;;
23596;SDS011;40226;50.874;4.394;2023-05-02T08:28:24;14.63;;;7.00;;
23596;SDS011;40226;50.874;4.394;2023-05-02T08:30:49;16.55;;;6.57;;
23596;SDS011;40226;50.874;4.394;2023-05-02T08:33:15;14.80;;;7.38;;
23596;SDS011;40226;50.874;4.394;2023-05-02T08:35:41;14.18;;;7.68;;
23596;SDS011;40226;50.874;4.394;2023-05-02T08:38:06;15.23;;;7.57;;
23596;SDS011;40226;50.874;4.394;2023-05-02T08:40:36;15.43;;;7.90;;
23596;SDS011;40226;50.874;4.394;2023-05-02T08:43:02;13.38;;;8.10;;
23596;SDS011;40226;50.874;4.394;2023-05-02T08:45:33;17.40;;;8.60;;
23596;SDS011;40226;50.874;4.394;2023-05-02T08:48:07;12.35;;;6.80;;
23596;SDS011;40226;50.874;4.394;2023-05-02T08:50:38;12.43;;;6.35;;
23596;SDS011;40226;50.874;4.394;2023-05-02T08:53:06;12.98;;;5.88;;
23596;SDS011;40226;50.874;4.394;2023-05-02T08:55:33;11.38;;;6.18;;
23596;SDS011;40226;50.874;4.394;2023-05-02T08:58:00;15.90;;;7.68;;
23596;SDS011;40226;50.874;4.394;2023-05-02T09:00:28;19.02;;;8.52;;
23596;SDS011;40226;50.874;4.394;2023-05-02T09:02:59;20.20;;;8.30;;
23596;SDS011;40226;50.874;4.394;2023-05-02T09:05:30;13.60;;;8.60;;
23596;SDS011;40226;50.874;4.394;2023-05-02T09:08:03;13.15;;;8.65;;
23596;SDS011;40226;50.874;4.394;2023-05-02T09:10:29;16.85;;;9.45;;
23596;SDS011;40226;50.874;4.394;2023-05-02T09:12:55;10.95;;;9.30;;
23596;SDS011;40226;50.874;4.394;2023-05-02T09:15:21;16.17;;;9.40;;
23596;SDS011;40226;50.874;4.394;2023-05-02T09:17:47;14.38;;;9.77;;
23596;SDS011;40226;50.874;4.394;2023-05-02T09:20:14;17.83;;;9.93;;
23596;SDS011;40226;50.874;4.394;2023-05-02T09:22:47;14.77;;;10.00;;
23596;SDS011;40226;50.874;4.394;2023-05-02T09:25:14;14.77;;;9.55;;
23596;SDS011;40226;50.874;4.394;2023-05-02T09:27:58;13.77;;;9.07;;
23596;SDS011;40226;50.874;4.394;2023-05-02T09:30:25;18.65;;;10.07;;
23596;SDS011;40226;50.874;4.394;2023-05-02T09:32:52;15.60;;;9.32;;
23596;SDS011;40226;50.874;4.394;2023-05-02T09:35:20;13.63;;;9.77;;
23596;SDS011;40226;50.874;4.394;2023-05-02T09:37:55;14.98;;;9.52;;
23596;SDS011;40226;50.874;4.394;2023-05-02T09:40:21;26.40;;;15.40;;
23596;SDS011;40226;50.874;4.394;2023-05-02T09:42:48;16.20;;;10.00;;
23596;SDS011;40226;50.874;4.394;2023-05-02T09:45:21;19.38;;;10.57;;
23596;SDS011;40226;50.874;4.394;2023-05-02T09:47:48;16.98;;;10.05;;
23596;SDS011;40226;50.874;4.394;2023-05-02T09:50:31;13.35;;;9.40;;
23596;SDS011;40226;50.874;4.394;2023-05-02T09:53:01;12.38;;;8.60;;
23596;SDS011;40226;50.874;4.394;2023-05-02T09:55:27;12.45;;;8.23;;
23596;SDS011;40226;50.874;4.394;2023-05-02T09:57:53;19.08;;;8.85;;
23596;SDS011;40226;50.874;4.394;2023-05-02T10:00:19;11.48;;;8.25;;
23596;SDS011;40226;50.874;4.394;2023-05-02T10:02:45;14.85;;;8.05;;
23596;SDS011;40226;50.874;4.394;2023-05-02T10:05:15;10.00;;;7.75;;
23596;SDS011;40226;50.874;4.394;2023-05-02T10:07:44;12.07;;;8.48;;
23596;SDS011;40226;50.874;4.394;2023-05-02T10:10:11;13.35;;;8.15;;
23596;SDS011;40226;50.874;4.394;2023-05-02T10:12:41;15.38;;;8.60;;
23596;SDS011;40226;50.874;4.394;2023-05-02T10:15:08;14.90;;;8.95;;
23596;SDS011;40226;50.874;4.394;2023-05-02T10:17:39;16.70;;;9.10;;
23596;SDS011;40226;50.874;4.394;2023-05-02T10:20:08;17.63;;;9.00;;
23596;SDS011;40226;50.874;4.394;2023-05-02T10:22:40;12.40;;;7.72;;
23596;SDS011;40226;50.874;4.394;2023-05-02T10:25:07;17.83;;;8.32;;
23596;SDS011;40226;50.874;4.394;2023-05-02T10:27:33;14.82;;;8.93;;
23596;SDS011;40226;50.874;4.394;2023-05-02T10:29:59;11.02;;;8.20;;
23596;SDS011;40226;50.874;4.394;2023-05-02T10:32:26;12.77;;;8.13;;
23596;SDS011;40226;50.874;4.394;2023-05-02T10:34:53;14.63;;;7.90;;
23596;SDS011;40226;50.874;4.394;2023-05-02T10:37:26;15.90;;;7.63;;
23596;SDS011;40226;50.874;4.394;2023-05-02T10:39:53;12.80;;;7.90;;
23596;SDS011;40226;50.874;4.394;2023-05-02T10:42:19;15.27;;;8.23;;
23596;SDS011;40226;50.874;4.394;2023-05-02T10:44:45;12.85;;;7.40;;
23596;SDS011;40226;50.874;4.394;2023-05-02T10:47:18;14.30;;;7.45;;
23596;SDS011;40226;50.874;4.394;2023-05-02T10:49:52;13.70;;;7.30;;
23596;SDS011;40226;50.874;4.394;2023-05-02T11:00:24;16.42;;;9.13;;
23596;SDS011;40226;50.874;4.394;2023-05-02T11:02:51;11.75;;;9.10;;
23596;SDS011;40226;50.874;4.394;2023-05-02T11:05:17;13.80;;;8.60;;
23596;SDS011;40226;50.874;4.394;2023-05-02T11:07:43;13.45;;;8.75;;
23596;SDS011;40226;50.874;4.394;2023-05-02T11:12:56;14.05;;;8.23;;
23596;SDS011;40226;50.874;4.394;2023-05-02T11:20:28;13.00;;;8.88;;
23596;SDS011;40226;50.874;4.394;2023-05-02T11:22:56;13.20;;;9.52;;
23596;SDS011;40226;50.874;4.394;2023-05-02T11:25:33;14.25;;;8.38;;
23596;SDS011;40226;50.874;4.394;2023-05-02T11:28:01;13.77;;;8.35;;
23596;SDS011;40226;50.874;4.394;2023-05-02T11:30:43;12.40;;;8.82;;
23596;SDS011;40226;50.874;4.394;2023-05-02T11:35:40;17.52;;;8.48;;
23596;SDS011;40226;50.874;4.394;2023-05-02T11:38:09;20.92;;;8.25;;
23596;SDS011;40226;50.874;4.394;2023-05-02T11:40:36;12.55;;;8.50;;
23596;SDS011;40226;50.874;4.394;2023-05-02T11:43:12;12.63;;;8.23;;
23596;SDS011;40226;50.874;4.394;2023-05-02T11:45:39;13.63;;;8.25;;
23596;SDS011;40226;50.874;4.394;2023-05-02T11:48:06;14.30;;;8.20;;
23596;SDS011;40226;50.874;4.394;2023-05-02T11:50:33;13.45;;;8.00;;
23596;SDS011;40226;50.874;4.394;2023-05-02T11:53:08;13.18;;;7.60;;
23596;SDS011;40226;50.874;4.394;2023-05-02T11:55:45;14.02;;;7.95;;
23596;SDS011;40226;50.874;4.394;2023-05-02T11:58:15;12.50;;;7.28;;
23596;SDS011;40226;50.874;4.394;2023-05-02T12:00:46;11.48;;;6.80;;
23596;SDS011;40226;50.874;4.394;2023-05-02T12:03:19;12.65;;;6.80;;
23596;SDS011;40226;50.874;4.394;2023-05-02T12:08:52;13.60;;;6.82;;
23596;SDS011;40226;50.874;4.394;2023-05-02T12:11:31;12.60;;;6.43;;
23596;SDS011;40226;50.874;4.394;2023-05-02T12:13:57;13.93;;;6.95;;
23596;SDS011;40226;50.874;4.394;2023-05-02T12:16:22;13.40;;;6.78;;
23596;SDS011;40226;50.874;4.394;2023-05-02T12:18:48;12.18;;;6.40;;
23596;SDS011;40226;50.874;4.394;2023-05-02T12:21:14;12.18;;;6.70;;
23596;SDS011;40226;50.874;4.394;2023-05-02T12:23:41;13.00;;;6.40;;
23596;SDS011;40226;50.874;4.394;2023-05-02T12:26:19;15.48;;;6.20;;
23596;SDS011;40226;50.874;4.394;2023-05-02T12:28:51;14.32;;;6.35;;
23596;SDS011;40226;50.874;4.394;2023-05-02T12:31:21;10.10;;;6.32;;
23596;SDS011;40226;50.874;4.394;2023-05-02T12:33:47;11.80;;;6.43;;
23596;SDS011;40226;50.874;4.394;2023-05-02T12:36:14;14.88;;;6.63;;
23596;SDS011;40226;50.874;4.394;2023-05-02T12:38:46;13.00;;;7.40;;
23596;SDS011;40226;50.874;4.394;2023-05-02T12:41:14;11.95;;;6.53;;
23596;SDS011;40226;50.874;4.394;2023-05-02T12:43:47;11.52;;;6.22;;
23596;SDS011;40226;50.874;4.394;2023-05-02T12:46:13;13.00;;;6.40;;
23596;SDS011;40226;50.874;4.394;2023-05-02T12:48:39;9.48;;;5.88;;
23596;SDS011;40226;50.874;4.394;2023-05-02T12:51:05;10.02;;;5.28;;
23596;SDS011;40226;50.874;4.394;2023-05-02T12:56:07;10.23;;;5.13;;
23596;SDS011;40226;50.874;4.394;2023-05-02T12:58:44;8.02;;;4.70;;
23596;SDS011;40226;50.874;4.394;2023-05-02T13:01:11;13.75;;;5.65;;
23596;SDS011;40226;50.874;4.394;2023-05-02T13:03:37;13.10;;;5.90;;
23596;SDS011;40226;50.874;4.394;2023-05-02T13:06:03;12.70;;;6.22;;
23596;SDS011;40226;50.874;4.394;2023-05-02T13:08:28;22.20;;;17.73;;
23596;SDS011;40226;50.874;4.394;2023-05-02T13:10:56;11.75;;;6.25;;
23596;SDS011;40226;50.874;4.394;2023-05-02T13:13:23;10.75;;;5.97;;
23596;SDS011;40226;50.874;4.394;2023-05-02T13:15:48;14.38;;;5.90;;
23596;SDS011;40226;50.874;4.394;2023-05-02T13:18:14;13.32;;;4.38;;
23596;SDS011;40226;50.874;4.394;2023-05-02T13:20:40;12.88;;;5.07;;
23596;SDS011;40226;50.874;4.394;2023-05-02T13:23:05;12.98;;;4.70;;
23596;SDS011;40226;50.874;4.394;2023-05-02T13:25:31;13.98;;;5.35;;
23596;SDS011;40226;50.874;4.394;2023-05-02T13:27:56;14.23;;;5.95;;
23596;SDS011;40226;50.874;4.394;2023-05-02T13:30:22;11.23;;;5.10;;
23596;SDS011;40226;50.874;4.394;2023-05-02T13:32:48;9.88;;;5.03;;
23596;SDS011;40226;50.874;4.394;2023-05-02T13:35:13;13.25;;;5.10;;
23596;SDS011;40226;50.874;4.394;2023-05-02T13:37:40;13.65;;;5.38;;
23596;SDS011;40226;50.874;4.394;2023-05-02T13:40:06;13.93;;;5.72;;
23596;SDS011;40226;50.874;4.394;2023-05-02T13:42:32;12.25;;;5.50;;
23596;SDS011;40226;50.874;4.394;2023-05-02T13:44:58;11.50;;;5.78;;
23596;SDS011;40226;50.874;4.394;2023-05-02T13:47:24;10.00;;;4.88;;
23596;SDS011;40226;50.874;4.394;2023-05-02T13:49:50;11.55;;;5.00;;
23596;SDS011;40226;50.874;4.394;2023-05-02T13:52:16;10.95;;;5.82;;
23596;SDS011;40226;50.874;4.394;2023-05-02T13:54:41;12.07;;;6.43;;
23596;SDS011;40226;50.874;4.394;2023-05-02T13:57:07;10.68;;;6.43;;
23596;SDS011;40226;50.874;4.394;2023-05-02T13:59:33;10.13;;;4.85;;
23596;SDS011;40226;50.874;4.394;2023-05-02T14:01:58;10.52;;;4.70;;
23596;SDS011;40226;50.874;4.394;2023-05-02T14:04:24;9.93;;;4.88;;
23596;SDS011;40226;50.874;4.394;2023-05-02T14:06:50;12.77;;;6.60;;
23596;SDS011;40226;50.874;4.394;2023-05-02T14:09:15;9.65;;;4.88;;
23596;SDS011;40226;50.874;4.394;2023-05-02T14:11:41;10.35;;;4.65;;
23596;SDS011;40226;50.874;4.394;2023-05-02T14:14:08;10.48;;;5.00;;
23596;SDS011;40226;50.874;4.394;2023-05-02T14:16:36;9.82;;;4.18;;
23596;SDS011;40226;50.874;4.394;2023-05-02T14:19:02;9.75;;;4.10;;
23596;SDS011;40226;50.874;4.394;2023-05-02T14:21:27;10.07;;;4.40;;
23596;SDS011;40226;50.874;4.394;2023-05-02T14:23:53;9.93;;;4.40;;
23596;SDS011;40226;50.874;4.394;2023-05-02T14:26:19;10.63;;;4.20;;
23596;SDS011;40226;50.874;4.394;2023-05-02T14:28:45;11.25;;;5.40;;
23596;SDS011;40226;50.874;4.394;2023-05-02T14:31:11;14.20;;;5.82;;
23596;SDS011;40226;50.874;4.394;2023-05-02T14:33:36;10.25;;;5.35;;
23596;SDS011;40226;50.874;4.394;2023-05-02T14:36:02;12.00;;;5.28;;
23596;SDS011;40226;50.874;4.394;2023-05-02T14:38:28;12.63;;;5.00;;
23596;SDS011;40226;50.874;4.394;2023-05-02T14:40:54;11.75;;;5.47;;
23596;SDS011;40226;50.874;4.394;2023-05-02T14:43:19;12.65;;;5.70;;
23596;SDS011;40226;50.874;4.394;2023-05-02T14:45:45;12.88;;;5.30;;
23596;SDS011;40226;50.874;4.394;2023-05-02T14:48:11;9.43;;;5.38;;
23596;SDS011;40226;50.874;4.394;2023-05-02T14:50:38;11.55;;;5.30;;
23596;SDS011;40226;50.874;4.394;2023-05-02T14:53:05;9.90;;;4.80;;
23596;SDS011;40226;50.874;4.394;2023-05-02T14:55:37;9.13;;;4.90;;
23596;SDS011;40226;50.874;4.394;2023-05-02T14:58:06;9.88;;;4.60;;
23596;SDS011;40226;50.874;4.394;2023-05-02T15:00:34;14.27;;;6.88;;
23596;SDS011;40226;50.874;4.394;2023-05-02T15:03:06;11.50;;;5.45;;
23596;SDS011;40226;50.874;4.394;2023-05-02T15:05:34;9.98;;;5.78;;
23596;SDS011;40226;50.874;4.394;2023-05-02T15:08:00;14.32;;;6.22;;
23596;SDS011;40226;50.874;4.394;2023-05-02T15:10:26;10.55;;;5.60;;
23596;SDS011;40226;50.874;4.394;2023-05-02T15:12:52;12.25;;;5.22;;
23596;SDS011;40226;50.874;4.394;2023-05-02T15:15:18;61.22;;;17.00;;
23596;SDS011;40226;50.874;4.394;2023-05-02T15:17:48;17.02;;;5.97;;
23596;SDS011;40226;50.874;4.394;2023-05-02T15:20:15;10.30;;;5.43;;
23596;SDS011;40226;50.874;4.394;2023-05-02T15:22:41;13.27;;;5.85;;
23596;SDS011;40226;50.874;4.394;2023-05-02T15:25:06;18.70;;;6.38;;